MKC weather

Charles B. Wheeler Downtown Airport
Kansas City, Missouri, United States

Public forecast

Using degrees Fahrenheit for public forecast. Weather courtesy of forecast.io.

METAR (pilot weather report)

Retrieved 2017/10/22 08:54 UTC (21 minutes ago):

KMKC 220854Z 02005KT 9SM -RA OVC075 11/10 A2999 RMK AO2 PRESFR SLP151 P0015 60050 T01110100 55000

TAF (pilot weather forecast)

Retrieved 2017/10/22 06:22 UTC (3 hours ago):

TAF KMKC 220520Z 2206/2306 33011KT P6SM -SHRA VCTS BKN020CB TEMPO 2206/2207 5SM -TSRA BR BKN015CB FM220800 32007KT P6SM SCT035 FM230000 18004KT P6SM SKC